sensor_id;sensor_type;location;lat;lon;timestamp;P1;durP1;ratioP1;P2;durP2;ratioP2
6537;SDS011;3302;52.508;13.454;2023-06-05T00:02:18;2.57;;;1.90;;
6537;SDS011;3302;52.508;13.454;2023-06-05T00:04:44;2.00;;;1.70;;
6537;SDS011;3302;52.508;13.454;2023-06-05T00:07:10;2.97;;;2.43;;
6537;SDS011;3302;52.508;13.454;2023-06-05T00:09:36;4.73;;;2.70;;
6537;SDS011;3302;52.508;13.454;2023-06-05T00:12:01;2.97;;;2.17;;
6537;SDS011;3302;52.508;13.454;2023-06-05T00:14:27;2.83;;;1.60;;
6537;SDS011;3302;52.508;13.454;2023-06-05T00:16:53;2.30;;;1.77;;
6537;SDS011;3302;52.508;13.454;2023-06-05T00:19:21;5.37;;;1.60;;
6537;SDS011;3302;52.508;13.454;2023-06-05T00:21:47;2.20;;;1.60;;
6537;SDS011;3302;52.508;13.454;2023-06-05T00:24:15;1.93;;;1.67;;
6537;SDS011;3302;52.508;13.454;2023-06-05T00:26:41;1.83;;;1.60;;
6537;SDS011;3302;52.508;13.454;2023-06-05T00:29:07;2.13;;;1.63;;
6537;SDS011;3302;52.508;13.454;2023-06-05T00:31:33;2.40;;;2.00;;
6537;SDS011;3302;52.508;13.454;2023-06-05T00:33:59;3.97;;;1.57;;
6537;SDS011;3302;52.508;13.454;2023-06-05T00:36:24;3.70;;;1.60;;
6537;SDS011;3302;52.508;13.454;2023-06-05T00:38:50;2.53;;;1.50;;
6537;SDS011;3302;52.508;13.454;2023-06-05T00:41:16;2.53;;;1.70;;
6537;SDS011;3302;52.508;13.454;2023-06-05T00:43:42;3.53;;;1.60;;
6537;SDS011;3302;52.508;13.454;2023-06-05T00:46:08;1.60;;;1.50;;
6537;SDS011;3302;52.508;13.454;2023-06-05T00:48:36;2.13;;;1.80;;
6537;SDS011;3302;52.508;13.454;2023-06-05T00:51:03;1.97;;;1.50;;
6537;SDS011;3302;52.508;13.454;2023-06-05T00:53:30;2.27;;;1.50;;
6537;SDS011;3302;52.508;13.454;2023-06-05T00:55:59;2.27;;;1.70;;
6537;SDS011;3302;52.508;13.454;2023-06-05T00:58:27;2.53;;;1.73;;
6537;SDS011;3302;52.508;13.454;2023-06-05T01:00:56;1.90;;;1.70;;
6537;SDS011;3302;52.508;13.454;2023-06-05T01:03:22;2.93;;;1.67;;
6537;SDS011;3302;52.508;13.454;2023-06-05T01:05:50;2.03;;;1.40;;
6537;SDS011;3302;52.508;13.454;2023-06-05T01:08:15;2.97;;;1.60;;
6537;SDS011;3302;52.508;13.454;2023-06-05T01:10:51;1.73;;;1.53;;
6537;SDS011;3302;52.508;13.454;2023-06-05T01:13:21;2.10;;;1.60;;
6537;SDS011;3302;52.508;13.454;2023-06-05T01:15:51;4.30;;;2.00;;
6537;SDS011;3302;52.508;13.454;2023-06-05T01:18:20;2.43;;;1.80;;
6537;SDS011;3302;52.508;13.454;2023-06-05T01:20:48;3.37;;;1.90;;
6537;SDS011;3302;52.508;13.454;2023-06-05T01:23:14;1.60;;;1.50;;
6537;SDS011;3302;52.508;13.454;2023-06-05T01:25:40;2.77;;;1.50;;
6537;SDS011;3302;52.508;13.454;2023-06-05T01:33:33;3.27;;;1.67;;
6537;SDS011;3302;52.508;13.454;2023-06-05T01:36:12;2.50;;;1.50;;
6537;SDS011;3302;52.508;13.454;2023-06-05T01:38:40;1.43;;;1.30;;
6537;SDS011;3302;52.508;13.454;2023-06-05T01:41:08;2.33;;;1.60;;
6537;SDS011;3302;52.508;13.454;2023-06-05T01:43:36;1.97;;;1.60;;
6537;SDS011;3302;52.508;13.454;2023-06-05T01:46:03;2.20;;;1.47;;
6537;SDS011;3302;52.508;13.454;2023-06-05T01:48:32;3.53;;;1.50;;
6537;SDS011;3302;52.508;13.454;2023-06-05T01:50:59;2.17;;;1.60;;
6537;SDS011;3302;52.508;13.454;2023-06-05T01:53:26;1.93;;;1.40;;
6537;SDS011;3302;52.508;13.454;2023-06-05T01:55:53;1.67;;;1.50;;
6537;SDS011;3302;52.508;13.454;2023-06-05T01:58:25;2.10;;;1.50;;
6537;SDS011;3302;52.508;13.454;2023-06-05T02:00:52;2.13;;;1.60;;
6537;SDS011;3302;52.508;13.454;2023-06-05T02:03:19;2.00;;;1.40;;
6537;SDS011;3302;52.508;13.454;2023-06-05T02:05:45;3.50;;;1.70;;
6537;SDS011;3302;52.508;13.454;2023-06-05T02:08:12;3.27;;;1.60;;
6537;SDS011;3302;52.508;13.454;2023-06-05T02:10:39;1.90;;;1.30;;
6537;SDS011;3302;52.508;13.454;2023-06-05T02:13:09;3.07;;;1.50;;
6537;SDS011;3302;52.508;13.454;2023-06-05T02:15:35;1.73;;;1.53;;
6537;SDS011;3302;52.508;13.454;2023-06-05T02:18:02;1.67;;;1.57;;
6537;SDS011;3302;52.508;13.454;2023-06-05T02:20:31;1.97;;;1.40;;
6537;SDS011;3302;52.508;13.454;2023-06-05T02:22:57;2.60;;;1.80;;
6537;SDS011;3302;52.508;13.454;2023-06-05T02:25:24;2.07;;;1.57;;
6537;SDS011;3302;52.508;13.454;2023-06-05T02:27:53;2.70;;;1.73;;
6537;SDS011;3302;52.508;13.454;2023-06-05T02:30:20;2.63;;;1.70;;
6537;SDS011;3302;52.508;13.454;2023-06-05T02:32:47;2.67;;;1.77;;
6537;SDS011;3302;52.508;13.454;2023-06-05T02:35:21;2.33;;;1.67;;
6537;SDS011;3302;52.508;13.454;2023-06-05T02:37:48;2.70;;;1.50;;
6537;SDS011;3302;52.508;13.454;2023-06-05T02:40:14;1.93;;;1.50;;
6537;SDS011;3302;52.508;13.454;2023-06-05T02:42:40;2.63;;;1.70;;
6537;SDS011;3302;52.508;13.454;2023-06-05T02:45:06;2.10;;;1.63;;
6537;SDS011;3302;52.508;13.454;2023-06-05T02:47:33;1.85;;;1.45;;
6537;SDS011;3302;52.508;13.454;2023-06-05T02:49:59;2.10;;;1.50;;
6537;SDS011;3302;52.508;13.454;2023-06-05T02:52:25;3.37;;;1.90;;
6537;SDS011;3302;52.508;13.454;2023-06-05T02:54:53;2.13;;;1.50;;
6537;SDS011;3302;52.508;13.454;2023-06-05T02:57:19;2.93;;;1.50;;
6537;SDS011;3302;52.508;13.454;2023-06-05T02:59:44;3.20;;;1.40;;
6537;SDS011;3302;52.508;13.454;2023-06-05T03:02:10;2.97;;;1.60;;
6537;SDS011;3302;52.508;13.454;2023-06-05T03:04:36;1.83;;;1.40;;
6537;SDS011;3302;52.508;13.454;2023-06-05T03:07:05;3.70;;;1.90;;
6537;SDS011;3302;52.508;13.454;2023-06-05T03:09:33;2.00;;;1.50;;
6537;SDS011;3302;52.508;13.454;2023-06-05T03:11:59;2.20;;;1.50;;
6537;SDS011;3302;52.508;13.454;2023-06-05T03:14:25;1.87;;;1.60;;
6537;SDS011;3302;52.508;13.454;2023-06-05T03:16:56;3.83;;;1.70;;
6537;SDS011;3302;52.508;13.454;2023-06-05T03:19:24;1.87;;;1.50;;
6537;SDS011;3302;52.508;13.454;2023-06-05T03:21:50;3.00;;;1.70;;
6537;SDS011;3302;52.508;13.454;2023-06-05T03:24:16;2.30;;;1.80;;
6537;SDS011;3302;52.508;13.454;2023-06-05T03:26:42;2.20;;;1.70;;
6537;SDS011;3302;52.508;13.454;2023-06-05T03:29:09;2.00;;;1.80;;
6537;SDS011;3302;52.508;13.454;2023-06-05T03:31:35;2.10;;;1.40;;
6537;SDS011;3302;52.508;13.454;2023-06-05T03:34:01;2.20;;;1.50;;
6537;SDS011;3302;52.508;13.454;2023-06-05T03:36:29;2.33;;;1.57;;
6537;SDS011;3302;52.508;13.454;2023-06-05T03:38:58;2.90;;;1.63;;
6537;SDS011;3302;52.508;13.454;2023-06-05T03:41:24;4.83;;;1.70;;
6537;SDS011;3302;52.508;13.454;2023-06-05T03:43:51;2.97;;;2.00;;
6537;SDS011;3302;52.508;13.454;2023-06-05T03:46:17;2.47;;;1.40;;
6537;SDS011;3302;52.508;13.454;2023-06-05T03:48:47;3.83;;;1.70;;
6537;SDS011;3302;52.508;13.454;2023-06-05T03:51:23;2.40;;;1.53;;
6537;SDS011;3302;52.508;13.454;2023-06-05T03:53:59;2.53;;;1.90;;
6537;SDS011;3302;52.508;13.454;2023-06-05T03:56:26;2.47;;;1.60;;
6537;SDS011;3302;52.508;13.454;2023-06-05T03:58:59;2.80;;;1.53;;
6537;SDS011;3302;52.508;13.454;2023-06-05T04:01:34;2.63;;;1.67;;
6537;SDS011;3302;52.508;13.454;2023-06-05T04:04:05;2.93;;;1.67;;
6537;SDS011;3302;52.508;13.454;2023-06-05T04:06:33;4.27;;;1.83;;
6537;SDS011;3302;52.508;13.454;2023-06-05T04:09:01;4.17;;;1.90;;
6537;SDS011;3302;52.508;13.454;2023-06-05T04:11:40;2.73;;;1.60;;
6537;SDS011;3302;52.508;13.454;2023-06-05T04:14:07;3.77;;;1.97;;
6537;SDS011;3302;52.508;13.454;2023-06-05T04:16:34;3.37;;;1.97;;
6537;SDS011;3302;52.508;13.454;2023-06-05T04:19:04;2.03;;;1.80;;
6537;SDS011;3302;52.508;13.454;2023-06-05T04:21:32;2.37;;;1.73;;
6537;SDS011;3302;52.508;13.454;2023-06-05T04:23:59;2.10;;;1.57;;
6537;SDS011;3302;52.508;13.454;2023-06-05T04:26:26;2.73;;;1.77;;
6537;SDS011;3302;52.508;13.454;2023-06-05T04:28:51;3.07;;;1.73;;
6537;SDS011;3302;52.508;13.454;2023-06-05T04:31:17;2.47;;;1.50;;
6537;SDS011;3302;52.508;13.454;2023-06-05T04:33:43;3.20;;;1.70;;
6537;SDS011;3302;52.508;13.454;2023-06-05T04:36:09;3.20;;;1.63;;
6537;SDS011;3302;52.508;13.454;2023-06-05T04:38:36;3.43;;;1.80;;
6537;SDS011;3302;52.508;13.454;2023-06-05T04:41:02;2.20;;;1.60;;
6537;SDS011;3302;52.508;13.454;2023-06-05T04:43:28;3.10;;;1.90;;
6537;SDS011;3302;52.508;13.454;2023-06-05T04:45:54;2.83;;;2.10;;
6537;SDS011;3302;52.508;13.454;2023-06-05T04:48:20;3.30;;;1.90;;
6537;SDS011;3302;52.508;13.454;2023-06-05T04:50:46;8.23;;;3.13;;
6537;SDS011;3302;52.508;13.454;2023-06-05T04:53:12;5.13;;;2.77;;
6537;SDS011;3302;52.508;13.454;2023-06-05T04:55:38;3.20;;;2.07;;
6537;SDS011;3302;52.508;13.454;2023-06-05T04:58:03;4.07;;;1.90;;
6537;SDS011;3302;52.508;13.454;2023-06-05T05:00:29;3.57;;;1.90;;
6537;SDS011;3302;52.508;13.454;2023-06-05T05:02:55;2.53;;;1.87;;
6537;SDS011;3302;52.508;13.454;2023-06-05T05:05:21;2.20;;;1.90;;
6537;SDS011;3302;52.508;13.454;2023-06-05T05:07:47;4.03;;;1.60;;
6537;SDS011;3302;52.508;13.454;2023-06-05T05:10:13;5.53;;;1.90;;
6537;SDS011;3302;52.508;13.454;2023-06-05T05:12:39;5.40;;;2.03;;
6537;SDS011;3302;52.508;13.454;2023-06-05T05:15:05;7.47;;;2.40;;
6537;SDS011;3302;52.508;13.454;2023-06-05T05:17:32;4.10;;;2.20;;
6537;SDS011;3302;52.508;13.454;2023-06-05T05:19:58;4.27;;;2.00;;
6537;SDS011;3302;52.508;13.454;2023-06-05T05:22:24;6.03;;;2.50;;
6537;SDS011;3302;52.508;13.454;2023-06-05T05:24:51;4.83;;;1.77;;
6537;SDS011;3302;52.508;13.454;2023-06-05T05:27:17;5.17;;;2.03;;
6537;SDS011;3302;52.508;13.454;2023-06-05T05:29:42;4.57;;;1.90;;
6537;SDS011;3302;52.508;13.454;2023-06-05T05:32:08;3.10;;;1.73;;
6537;SDS011;3302;52.508;13.454;2023-06-05T05:34:34;4.30;;;1.80;;
6537;SDS011;3302;52.508;13.454;2023-06-05T05:36:59;5.63;;;1.90;;
6537;SDS011;3302;52.508;13.454;2023-06-05T05:39:26;2.63;;;2.10;;
6537;SDS011;3302;52.508;13.454;2023-06-05T05:41:52;3.77;;;2.03;;
6537;SDS011;3302;52.508;13.454;2023-06-05T05:44:17;3.63;;;2.37;;
6537;SDS011;3302;52.508;13.454;2023-06-05T05:46:45;4.10;;;1.90;;
6537;SDS011;3302;52.508;13.454;2023-06-05T05:49:14;3.23;;;2.10;;
6537;SDS011;3302;52.508;13.454;2023-06-05T05:51:40;3.30;;;1.57;;
6537;SDS011;3302;52.508;13.454;2023-06-05T05:54:06;3.27;;;2.23;;
6537;SDS011;3302;52.508;13.454;2023-06-05T05:56:32;2.47;;;1.70;;
6537;SDS011;3302;52.508;13.454;2023-06-05T05:58:59;3.90;;;1.90;;
6537;SDS011;3302;52.508;13.454;2023-06-05T06:01:26;4.60;;;1.90;;
6537;SDS011;3302;52.508;13.454;2023-06-05T06:03:51;3.40;;;1.90;;
6537;SDS011;3302;52.508;13.454;2023-06-05T06:06:17;2.00;;;1.50;;
6537;SDS011;3302;52.508;13.454;2023-06-05T06:08:43;5.07;;;2.07;;
6537;SDS011;3302;52.508;13.454;2023-06-05T06:11:09;3.23;;;1.93;;
6537;SDS011;3302;52.508;13.454;2023-06-05T06:13:34;6.53;;;1.87;;
6537;SDS011;3302;52.508;13.454;2023-06-05T06:16:00;4.13;;;1.93;;
6537;SDS011;3302;52.508;13.454;2023-06-05T06:18:27;5.07;;;2.13;;
6537;SDS011;3302;52.508;13.454;2023-06-05T06:20:53;6.50;;;2.17;;
6537;SDS011;3302;52.508;13.454;2023-06-05T06:23:20;6.00;;;2.17;;
6537;SDS011;3302;52.508;13.454;2023-06-05T06:25:46;2.93;;;2.00;;
6537;SDS011;3302;52.508;13.454;2023-06-05T06:28:12;4.27;;;2.00;;
6537;SDS011;3302;52.508;13.454;2023-06-05T06:30:37;3.57;;;2.20;;
6537;SDS011;3302;52.508;13.454;2023-06-05T06:33:03;5.00;;;2.33;;
6537;SDS011;3302;52.508;13.454;2023-06-05T06:35:29;5.13;;;2.10;;
6537;SDS011;3302;52.508;13.454;2023-06-05T06:37:57;6.00;;;2.33;;
6537;SDS011;3302;52.508;13.454;2023-06-05T06:40:23;7.37;;;3.80;;
6537;SDS011;3302;52.508;13.454;2023-06-05T06:42:49;4.67;;;2.30;;
6537;SDS011;3302;52.508;13.454;2023-06-05T06:45:19;4.50;;;1.90;;
6537;SDS011;3302;52.508;13.454;2023-06-05T06:47:46;3.77;;;1.87;;
6537;SDS011;3302;52.508;13.454;2023-06-05T06:50:12;4.03;;;1.90;;
6537;SDS011;3302;52.508;13.454;2023-06-05T06:52:38;3.20;;;1.83;;
6537;SDS011;3302;52.508;13.454;2023-06-05T06:55:04;5.10;;;2.00;;
6537;SDS011;3302;52.508;13.454;2023-06-05T06:57:31;3.83;;;1.90;;
6537;SDS011;3302;52.508;13.454;2023-06-05T06:59:57;6.37;;;2.60;;
6537;SDS011;3302;52.508;13.454;2023-06-05T07:02:23;3.83;;;2.07;;
6537;SDS011;3302;52.508;13.454;2023-06-05T07:04:50;5.63;;;3.47;;
6537;SDS011;3302;52.508;13.454;2023-06-05T07:07:18;3.20;;;2.13;;
6537;SDS011;3302;52.508;13.454;2023-06-05T07:09:48;3.07;;;2.30;;
6537;SDS011;3302;52.508;13.454;2023-06-05T07:12:16;3.97;;;1.80;;
6537;SDS011;3302;52.508;13.454;2023-06-05T07:14:44;6.67;;;2.07;;
6537;SDS011;3302;52.508;13.454;2023-06-05T07:17:10;3.07;;;1.90;;
6537;SDS011;3302;52.508;13.454;2023-06-05T07:19:36;3.20;;;2.20;;
6537;SDS011;3302;52.508;13.454;2023-06-05T07:22:03;5.30;;;3.70;;
6537;SDS011;3302;52.508;13.454;2023-06-05T07:24:30;6.20;;;3.20;;
6537;SDS011;3302;52.508;13.454;2023-06-05T07:26:58;3.30;;;1.87;;
6537;SDS011;3302;52.508;13.454;2023-06-05T07:29:25;4.63;;;1.80;;
6537;SDS011;3302;52.508;13.454;2023-06-05T07:31:52;4.70;;;2.20;;
6537;SDS011;3302;52.508;13.454;2023-06-05T07:34:19;6.70;;;2.00;;
6537;SDS011;3302;52.508;13.454;2023-06-05T07:36:47;4.43;;;2.20;;
6537;SDS011;3302;52.508;13.454;2023-06-05T07:39:14;3.63;;;1.67;;
6537;SDS011;3302;52.508;13.454;2023-06-05T07:41:40;4.43;;;2.10;;
6537;SDS011;3302;52.508;13.454;2023-06-05T07:44:13;4.03;;;2.20;;
6537;SDS011;3302;52.508;13.454;2023-06-05T07:46:42;2.37;;;1.83;;
6537;SDS011;3302;52.508;13.454;2023-06-05T07:49:08;3.77;;;1.90;;
6537;SDS011;3302;52.508;13.454;2023-06-05T07:51:34;4.60;;;2.00;;
6537;SDS011;3302;52.508;13.454;2023-06-05T07:54:09;4.10;;;1.80;;
6537;SDS011;3302;52.508;13.454;2023-06-05T07:56:35;4.50;;;1.93;;
6537;SDS011;3302;52.508;13.454;2023-06-05T07:59:05;6.33;;;2.00;;
6537;SDS011;3302;52.508;13.454;2023-06-05T08:01:32;5.77;;;1.90;;
6537;SDS011;3302;52.508;13.454;2023-06-05T08:04:02;2.83;;;2.07;;
6537;SDS011;3302;52.508;13.454;2023-06-05T08:06:29;4.43;;;2.13;;
6537;SDS011;3302;52.508;13.454;2023-06-05T08:08:55;7.47;;;2.23;;
6537;SDS011;3302;52.508;13.454;2023-06-05T08:11:21;3.17;;;1.90;;
6537;SDS011;3302;52.508;13.454;2023-06-05T08:13:47;3.13;;;1.57;;
6537;SDS011;3302;52.508;13.454;2023-06-05T08:16:13;2.40;;;1.80;;
6537;SDS011;3302;52.508;13.454;2023-06-05T08:18:40;3.40;;;2.00;;
6537;SDS011;3302;52.508;13.454;2023-06-05T08:21:06;3.10;;;1.80;;
6537;SDS011;3302;52.508;13.454;2023-06-05T08:23:32;4.90;;;1.90;;
6537;SDS011;3302;52.508;13.454;2023-06-05T08:25:58;1.97;;;1.57;;
6537;SDS011;3302;52.508;13.454;2023-06-05T08:28:24;3.17;;;1.63;;
6537;SDS011;3302;52.508;13.454;2023-06-05T08:30:49;5.77;;;1.70;;
6537;SDS011;3302;52.508;13.454;2023-06-05T08:33:17;2.37;;;1.80;;
6537;SDS011;3302;52.508;13.454;2023-06-05T08:35:44;1.80;;;1.60;;
6537;SDS011;3302;52.508;13.454;2023-06-05T08:38:10;2.50;;;1.80;;
6537;SDS011;3302;52.508;13.454;2023-06-05T08:40:36;4.37;;;1.57;;
6537;SDS011;3302;52.508;13.454;2023-06-05T08:43:04;4.23;;;2.00;;
6537;SDS011;3302;52.508;13.454;2023-06-05T08:45:30;4.43;;;1.87;;
6537;SDS011;3302;52.508;13.454;2023-06-05T08:47:58;3.20;;;1.80;;
6537;SDS011;3302;52.508;13.454;2023-06-05T08:50:27;2.47;;;1.73;;
6537;SDS011;3302;52.508;13.454;2023-06-05T08:52:53;6.27;;;1.97;;
6537;SDS011;3302;52.508;13.454;2023-06-05T08:55:24;2.63;;;1.90;;
6537;SDS011;3302;52.508;13.454;2023-06-05T08:57:51;2.73;;;1.83;;
6537;SDS011;3302;52.508;13.454;2023-06-05T09:00:18;3.20;;;2.10;;
6537;SDS011;3302;52.508;13.454;2023-06-05T09:02:44;2.50;;;1.87;;
6537;SDS011;3302;52.508;13.454;2023-06-05T09:05:16;3.45;;;2.25;;
6537;SDS011;3302;52.508;13.454;2023-06-05T09:07:42;5.70;;;2.00;;
6537;SDS011;3302;52.508;13.454;2023-06-05T09:10:27;2.93;;;1.80;;
6537;SDS011;3302;52.508;13.454;2023-06-05T09:15:24;4.68;;;1.88;;
6537;SDS011;3302;52.508;13.454;2023-06-05T09:18:02;3.22;;;1.83;;
6537;SDS011;3302;52.508;13.454;2023-06-05T09:20:34;3.43;;;1.90;;
6537;SDS011;3302;52.508;13.454;2023-06-05T09:23:03;3.50;;;1.80;;
6537;SDS011;3302;52.508;13.454;2023-06-05T09:25:45;2.23;;;1.73;;
6537;SDS011;3302;52.508;13.454;2023-06-05T09:28:16;4.60;;;1.70;;
6537;SDS011;3302;52.508;13.454;2023-06-05T09:30:55;5.03;;;1.73;;
6537;SDS011;3302;52.508;13.454;2023-06-05T09:33:23;3.08;;;2.10;;
6537;SDS011;3302;52.508;13.454;2023-06-05T09:36:09;2.22;;;1.70;;
6537;SDS011;3302;52.508;13.454;2023-06-05T09:38:37;3.08;;;1.63;;
6537;SDS011;3302;52.508;13.454;2023-06-05T09:43:31;4.77;;;2.00;;
6537;SDS011;3302;52.508;13.454;2023-06-05T09:45:57;3.90;;;1.60;;
6537;SDS011;3302;52.508;13.454;2023-06-05T09:48:23;4.22;;;1.60;;
6537;SDS011;3302;52.508;13.454;2023-06-05T09:50:51;3.38;;;1.83;;
6537;SDS011;3302;52.508;13.454;2023-06-05T09:53:17;4.97;;;1.80;;
6537;SDS011;3302;52.508;13.454;2023-06-05T09:55:46;2.53;;;1.55;;
6537;SDS011;3302;52.508;13.454;2023-06-05T09:58:12;3.75;;;2.10;;
6537;SDS011;3302;52.508;13.454;2023-06-05T10:00:40;3.67;;;1.50;;
6537;SDS011;3302;52.508;13.454;2023-06-05T10:03:14;3.75;;;1.60;;
6537;SDS011;3302;52.508;13.454;2023-06-05T10:05:43;2.50;;;2.05;;
6537;SDS011;3302;52.508;13.454;2023-06-05T10:08:13;4.70;;;1.80;;
6537;SDS011;3302;52.508;13.454;2023-06-05T10:10:40;3.70;;;2.13;;
6537;SDS011;3302;52.508;13.454;2023-06-05T10:13:06;2.13;;;1.60;;
6537;SDS011;3302;52.508;13.454;2023-06-05T10:15:35;3.65;;;1.58;;
6537;SDS011;3302;52.508;13.454;2023-06-05T10:18:04;3.42;;;1.70;;
6537;SDS011;3302;52.508;13.454;2023-06-05T10:20:30;6.22;;;1.70;;
6537;SDS011;3302;52.508;13.454;2023-06-05T10:22:59;2.70;;;1.85;;
6537;SDS011;3302;52.508;13.454;2023-06-05T10:25:26;4.40;;;1.80;;
6537;SDS011;3302;52.508;13.454;2023-06-05T10:38:26;2.23;;;1.63;;
6537;SDS011;3302;52.508;13.454;2023-06-05T10:40:57;1.85;;;1.50;;
6537;SDS011;3302;52.508;13.454;2023-06-05T10:43:25;1.92;;;1.58;;
6537;SDS011;3302;52.508;13.454;2023-06-05T10:45:55;3.22;;;1.90;;
6537;SDS011;3302;52.508;13.454;2023-06-05T10:49:02;5.95;;;2.05;;
6537;SDS011;3302;52.508;13.454;2023-06-05T10:51:42;4.30;;;2.10;;
6537;SDS011;3302;52.508;13.454;2023-06-05T10:54:10;4.38;;;1.80;;
6537;SDS011;3302;52.508;13.454;2023-06-05T10:59:33;2.53;;;1.75;;
6537;SDS011;3302;52.508;13.454;2023-06-05T11:07:17;2.90;;;1.90;;
6537;SDS011;3302;52.508;13.454;2023-06-05T11:15:00;5.00;;;1.92;;
6537;SDS011;3302;52.508;13.454;2023-06-05T11:17:27;3.63;;;2.10;;
6537;SDS011;3302;52.508;13.454;2023-06-05T11:20:01;3.97;;;2.17;;
6537;SDS011;3302;52.508;13.454;2023-06-05T11:22:31;3.03;;;1.85;;
6537;SDS011;3302;52.508;13.454;2023-06-05T11:27:47;1.98;;;1.77;;
6537;SDS011;3302;52.508;13.454;2023-06-05T11:35:39;3.85;;;2.35;;
6537;SDS011;3302;52.508;13.454;2023-06-05T11:40:38;4.88;;;2.60;;
6537;SDS011;3302;52.508;13.454;2023-06-05T11:43:06;2.90;;;1.92;;
6537;SDS011;3302;52.508;13.454;2023-06-05T11:45:33;2.30;;;2.03;;
6537;SDS011;3302;52.508;13.454;2023-06-05T11:48:07;6.35;;;2.22;;
6537;SDS011;3302;52.508;13.454;2023-06-05T11:50:37;2.10;;;1.90;;
6537;SDS011;3302;52.508;13.454;2023-06-05T11:53:08;2.88;;;2.58;;
6537;SDS011;3302;52.508;13.454;2023-06-05T11:55:35;4.43;;;2.20;;
6537;SDS011;3302;52.508;13.454;2023-06-05T11:58:20;5.00;;;2.47;;
6537;SDS011;3302;52.508;13.454;2023-06-05T12:00:47;2.65;;;2.08;;
6537;SDS011;3302;52.508;13.454;2023-06-05T12:03:16;3.85;;;2.58;;
6537;SDS011;3302;52.508;13.454;2023-06-05T12:05:47;2.15;;;1.90;;
6537;SDS011;3302;52.508;13.454;2023-06-05T12:08:23;4.25;;;2.53;;
6537;SDS011;3302;52.508;13.454;2023-06-05T12:10:53;3.00;;;1.90;;
6537;SDS011;3302;52.508;13.454;2023-06-05T12:13:20;2.13;;;1.92;;
6537;SDS011;3302;52.508;13.454;2023-06-05T12:15:56;3.50;;;2.50;;
6537;SDS011;3302;52.508;13.454;2023-06-05T12:18:32;4.55;;;2.22;;
6537;SDS011;3302;52.508;13.454;2023-06-05T12:20:59;3.10;;;2.42;;
6537;SDS011;3302;52.508;13.454;2023-06-05T12:23:25;2.65;;;1.90;;
6537;SDS011;3302;52.508;13.454;2023-06-05T12:26:00;1.92;;;1.73;;
6537;SDS011;3302;52.508;13.454;2023-06-05T12:28:28;2.25;;;1.75;;
6537;SDS011;3302;52.508;13.454;2023-06-05T12:30:55;4.57;;;2.38;;
6537;SDS011;3302;52.508;13.454;2023-06-05T12:33:21;2.83;;;2.25;;
6537;SDS011;3302;52.508;13.454;2023-06-05T12:36:01;2.70;;;2.13;;
6537;SDS011;3302;52.508;13.454;2023-06-05T12:38:38;4.28;;;2.10;;
6537;SDS011;3302;52.508;13.454;2023-06-05T12:41:07;2.90;;;2.08;;
6537;SDS011;3302;52.508;13.454;2023-06-05T12:43:33;3.30;;;1.90;;
6537;SDS011;3302;52.508;13.454;2023-06-05T12:46:00;2.30;;;2.10;;
6537;SDS011;3302;52.508;13.454;2023-06-05T12:48:26;2.50;;;2.22;;
6537;SDS011;3302;52.508;13.454;2023-06-05T12:50:52;4.38;;;2.25;;
6537;SDS011;3302;52.508;13.454;2023-06-05T12:53:19;3.42;;;2.38;;
6537;SDS011;3302;52.508;13.454;2023-06-05T12:55:45;3.70;;;2.33;;
6537;SDS011;3302;52.508;13.454;2023-06-05T12:58:11;3.05;;;2.20;;
6537;SDS011;3302;52.508;13.454;2023-06-05T13:00:37;2.20;;;2.00;;
6537;SDS011;3302;52.508;13.454;2023-06-05T13:03:03;3.10;;;2.20;;
6537;SDS011;3302;52.508;13.454;2023-06-05T13:05:29;3.85;;;2.35;;
6537;SDS011;3302;52.508;13.454;2023-06-05T13:07:58;5.15;;;2.45;;
6537;SDS011;3302;52.508;13.454;2023-06-05T13:10:24;4.18;;;2.38;;
6537;SDS011;3302;52.508;13.454;2023-06-05T13:12:50;3.00;;;2.10;;
6537;SDS011;3302;52.508;13.454;2023-06-05T13:15:16;3.05;;;2.25;;
6537;SDS011;3302;52.508;13.454;2023-06-05T13:17:42;3.20;;;2.40;;
6537;SDS011;3302;52.508;13.454;2023-06-05T13:20:08;3.88;;;2.13;;
6537;SDS011;3302;52.508;13.454;2023-06-05T13:22:36;3.80;;;2.28;;
6537;SDS011;3302;52.508;13.454;2023-06-05T13:25:05;5.93;;;2.70;;
6537;SDS011;3302;52.508;13.454;2023-06-05T13:27:32;4.05;;;2.20;;
6537;SDS011;3302;52.508;13.454;2023-06-05T13:29:58;3.05;;;2.15;;
6537;SDS011;3302;52.508;13.454;2023-06-05T13:32:24;4.65;;;2.03;;
6537;SDS011;3302;52.508;13.454;2023-06-05T13:34:50;3.75;;;2.10;;
6537;SDS011;3302;52.508;13.454;2023-06-05T13:37:16;5.82;;;2.60;;
6537;SDS011;3302;52.508;13.454;2023-06-05T13:39:42;2.60;;;2.40;;
6537;SDS011;3302;52.508;13.454;2023-06-05T13:42:07;2.80;;;2.33;;
6537;SDS011;3302;52.508;13.454;2023-06-05T13:44:33;2.75;;;2.25;;
6537;SDS011;3302;52.508;13.454;2023-06-05T13:46:59;3.25;;;2.20;;
6537;SDS011;3302;52.508;13.454;2023-06-05T13:49:28;2.30;;;2.10;;
6537;SDS011;3302;52.508;13.454;2023-06-05T13:51:54;2.83;;;2.55;;
6537;SDS011;3302;52.508;13.454;2023-06-05T13:54:20;3.97;;;2.30;;
6537;SDS011;3302;52.508;13.454;2023-06-05T13:56:46;2.65;;;2.33;;
6537;SDS011;3302;52.508;13.454;2023-06-05T13:59:12;2.45;;;2.10;;
6537;SDS011;3302;52.508;13.454;2023-06-05T14:01:37;3.17;;;2.33;;
6537;SDS011;3302;52.508;13.454;2023-06-05T14:04:03;2.83;;;2.25;;
6537;SDS011;3302;52.508;13.454;2023-06-05T14:06:29;3.17;;;2.30;;
6537;SDS011;3302;52.508;13.454;2023-06-05T14:08:56;3.33;;;2.30;;
6537;SDS011;3302;52.508;13.454;2023-06-05T14:11:22;3.25;;;2.17;;
6537;SDS011;3302;52.508;13.454;2023-06-05T14:13:48;3.17;;;2.08;;
6537;SDS011;3302;52.508;13.454;2023-06-05T14:16:13;4.25;;;2.17;;
6537;SDS011;3302;52.508;13.454;2023-06-05T14:18:39;3.65;;;2.50;;
6537;SDS011;3302;52.508;13.454;2023-06-05T14:21:05;5.03;;;2.50;;
6537;SDS011;3302;52.508;13.454;2023-06-05T14:23:31;3.20;;;2.50;;
6537;SDS011;3302;52.508;13.454;2023-06-05T14:25:57;2.92;;;2.58;;
6537;SDS011;3302;52.508;13.454;2023-06-05T14:28:23;3.85;;;2.40;;
6537;SDS011;3302;52.508;13.454;2023-06-05T14:30:48;2.75;;;2.22;;
6537;SDS011;3302;52.508;13.454;2023-06-05T14:33:14;2.65;;;2.13;;
6537;SDS011;3302;52.508;13.454;2023-06-05T14:35:42;2.70;;;2.25;;
6537;SDS011;3302;52.508;13.454;2023-06-05T14:38:08;8.68;;;3.17;;
6537;SDS011;3302;52.508;13.454;2023-06-05T14:40:37;6.38;;;3.00;;
6537;SDS011;3302;52.508;13.454;2023-06-05T14:43:04;3.83;;;2.45;;
6537;SDS011;3302;52.508;13.454;2023-06-05T14:45:30;4.70;;;2.40;;
6537;SDS011;3302;52.508;13.454;2023-06-05T14:47:56;3.00;;;2.58;;
6537;SDS011;3302;52.508;13.454;2023-06-05T14:50:22;2.92;;;2.50;;
6537;SDS011;3302;52.508;13.454;2023-06-05T14:52:48;2.60;;;2.40;;
6537;SDS011;3302;52.508;13.454;2023-06-05T14:55:14;5.55;;;2.40;;
6537;SDS011;3302;52.508;13.454;2023-06-05T14:57:40;2.90;;;2.38;;
6537;SDS011;3302;52.508;13.454;2023-06-05T15:00:06;5.65;;;2.78;;
6537;SDS011;3302;52.508;13.454;2023-06-05T15:02:34;2.50;;;2.30;;
6537;SDS011;3302;52.508;13.454;2023-06-05T15:05:00;4.85;;;2.50;;
6537;SDS011;3302;52.508;13.454;2023-06-05T15:07:36;4.35;;;2.60;;
6537;SDS011;3302;52.508;13.454;2023-06-05T15:10:04;5.68;;;2.70;;
6537;SDS011;3302;52.508;13.454;2023-06-05T15:12:30;2.60;;;2.40;;
6537;SDS011;3302;52.508;13.454;2023-06-05T15:14:56;5.28;;;3.15;;
6537;SDS011;3302;52.508;13.454;2023-06-05T15:17:22;3.25;;;2.42;;
6537;SDS011;3302;52.508;13.454;2023-06-05T15:19:48;4.38;;;2.63;;
6537;SDS011;3302;52.508;13.454;2023-06-05T15:22:14;4.85;;;3.05;;
6537;SDS011;3302;52.508;13.454;2023-06-05T15:24:40;3.42;;;2.67;;
6537;SDS011;3302;52.508;13.454;2023-06-05T15:27:06;3.65;;;2.40;;
6537;SDS011;3302;52.508;13.454;2023-06-05T15:29:33;3.33;;;2.58;;
6537;SDS011;3302;52.508;13.454;2023-06-05T15:31:59;4.57;;;2.55;;
6537;SDS011;3302;52.508;13.454;2023-06-05T15:34:25;3.40;;;2.47;;
6537;SDS011;3302;52.508;13.454;2023-06-05T15:36:51;5.20;;;2.30;;
6537;SDS011;3302;52.508;13.454;2023-06-05T15:39:17;3.60;;;2.13;;
6537;SDS011;3302;52.508;13.454;2023-06-05T15:41:42;5.13;;;2.97;;
6537;SDS011;3302;52.508;13.454;2023-06-05T15:44:08;3.28;;;2.38;;
6537;SDS011;3302;52.508;13.454;2023-06-05T15:46:35;2.50;;;2.25;;
6537;SDS011;3302;52.508;13.454;2023-06-05T15:49:01;3.25;;;2.65;;